createdAt,value
2023-02-11T00:00:21.753Z,65.33
2023-02-11T00:02:54.846Z,65.26
2023-02-11T00:05:27.319Z,65.29
2023-02-11T00:07:59.850Z,65.50
2023-02-11T00:10:32.197Z,65.09
2023-02-11T00:13:04.659Z,64.93
2023-02-11T00:15:37.134Z,65.94
2023-02-11T00:18:10.226Z,67.11
2023-02-11T00:20:42.953Z,66.38
2023-02-11T00:23:15.742Z,65.93
2023-02-11T00:25:48.143Z,66.15
2023-02-11T00:28:20.543Z,66.33
2023-02-11T00:30:55.245Z,66.65
2023-02-11T00:33:28.570Z,66.71
2023-02-11T00:36:04.219Z,67.70
2023-02-11T00:38:36.574Z,67.27
2023-02-11T00:41:08.982Z,68.09
2023-02-11T00:43:41.861Z,66.98
2023-02-11T00:46:14.578Z,67.80
2023-02-11T00:48:48.393Z,67.70
2023-02-11T00:51:20.862Z,66.99
2023-02-11T00:53:53.742Z,68.20
2023-02-11T00:56:26.464Z,68.67
2023-02-11T00:58:58.855Z,68.86
2023-02-11T01:01:31.319Z,69.16
2023-02-11T01:04:04.749Z,69.23
2023-02-11T01:06:37.132Z,68.94
2023-02-11T01:09:11.183Z,68.35
2023-02-11T01:11:43.674Z,67.42
2023-02-11T01:14:17.358Z,68.10
2023-02-11T01:16:49.725Z,68.11
2023-02-11T01:19:22.926Z,68.14
2023-02-11T01:21:55.288Z,67.30
2023-02-11T01:24:27.971Z,66.86
2023-02-11T01:27:00.419Z,68.10
2023-02-11T01:29:32.837Z,68.13
2023-02-11T01:32:05.294Z,68.17
2023-02-11T01:34:38.464Z,68.16
2023-02-11T01:37:11.098Z,67.88
2023-02-11T01:39:43.501Z,68.67
2023-02-11T01:42:20.853Z,67.56
2023-02-11T01:44:55.156Z,67.18
2023-02-11T01:47:27.575Z,67.19
2023-02-11T01:50:01.877Z,66.57
2023-02-11T01:52:39.035Z,66.70
2023-02-11T01:55:32.133Z,66.02
2023-02-11T01:58:05.425Z,66.65
2023-02-11T02:00:40.985Z,66.58
2023-02-11T02:03:18.824Z,66.82
2023-02-11T02:05:55.286Z,65.45
2023-02-11T02:08:31.501Z,66.81
2023-02-11T02:11:04.356Z,66.43
2023-02-11T02:13:36.974Z,67.27
2023-02-11T02:16:13.803Z,67.53
2023-02-11T02:18:56.005Z,67.13
2023-02-11T02:22:13.552Z,67.16
2023-02-11T02:25:00.284Z,67.04
2023-02-11T02:27:54.718Z,66.80
2023-02-11T02:30:49.319Z,65.85
2023-02-11T02:33:37.103Z,66.06
2023-02-11T02:36:18.037Z,66.57
2023-02-11T02:38:55.759Z,66.43
2023-02-11T02:41:31.089Z,66.13
2023-02-11T02:44:04.379Z,66.55
2023-02-11T02:46:37.330Z,66.66
2023-02-11T02:49:12.841Z,66.66
2023-02-11T02:52:23.423Z,67.53
2023-02-11T02:55:22.680Z,67.81
2023-02-11T02:58:08.938Z,68.27
2023-02-11T03:00:50.626Z,68.93
2023-02-11T03:03:32.556Z,68.11
2023-02-11T03:06:12.121Z,67.82
2023-02-11T03:08:49.112Z,68.15
2023-02-11T03:11:23.983Z,67.53
2023-02-11T03:13:58.124Z,68.25
2023-02-11T03:16:35.340Z,68.25
2023-02-11T03:19:12.304Z,68.64
2023-02-11T03:21:47.204Z,69.55
2023-02-11T03:24:25.709Z,69.26
2023-02-11T03:27:03.417Z,69.29
2023-02-11T03:29:43.442Z,68.78
2023-02-11T03:32:22.792Z,68.60
2023-02-11T03:34:59.880Z,68.71
2023-02-11T03:37:36.699Z,69.18
2023-02-11T03:40:13.388Z,68.78
2023-02-11T03:42:51.105Z,68.72
2023-02-11T03:45:25.348Z,68.99
2023-02-11T03:48:01.455Z,68.85
2023-02-11T03:50:35.939Z,68.95
2023-02-11T03:53:09.918Z,68.19
2023-02-11T03:55:43.846Z,67.48
2023-02-11T03:58:16.691Z,67.26
2023-02-11T04:00:49.114Z,67.09
2023-02-11T04:03:21.632Z,67.15
2023-02-11T04:05:54.133Z,67.10
2023-02-11T04:08:27.429Z,67.30
2023-02-11T04:10:59.752Z,67.69
2023-02-11T04:13:32.146Z,67.54
2023-02-11T04:16:04.811Z,68.03
2023-02-11T04:18:37.607Z,68.51
2023-02-11T04:21:09.960Z,69.21
2023-02-11T04:23:43.196Z,69.10
2023-02-11T04:26:15.501Z,68.25
2023-02-11T04:28:48.228Z,68.24
2023-02-11T04:31:20.701Z,68.90
2023-02-11T04:33:53.188Z,68.15
2023-02-11T04:36:25.542Z,69.27
2023-02-11T04:38:58.603Z,68.34
2023-02-11T04:41:31.068Z,68.79
2023-02-11T04:44:04.146Z,69.83
2023-02-11T04:46:36.614Z,69.80
2023-02-11T04:49:12.390Z,69.52
2023-02-11T04:51:46.999Z,69.35
2023-02-11T04:54:22.041Z,69.34
2023-02-11T04:56:54.460Z,70.03
2023-02-11T04:59:27.094Z,69.69
2023-02-11T05:01:59.496Z,69.53
2023-02-11T05:04:32.125Z,69.90
2023-02-11T05:07:04.635Z,69.48
2023-02-11T05:09:37.696Z,68.57
2023-02-11T05:12:10.118Z,68.45
2023-02-11T05:14:42.520Z,69.10
2023-02-11T05:17:14.945Z,68.68
2023-02-11T05:19:47.324Z,69.53
2023-02-11T05:22:21.240Z,69.45
2023-02-11T05:24:54.207Z,68.30
2023-02-11T05:27:26.627Z,68.62
2023-02-11T05:29:59.388Z,67.88
2023-02-11T05:32:32.373Z,68.94
2023-02-11T05:35:05.391Z,69.56
2023-02-11T05:37:38.321Z,69.45
2023-02-11T05:40:11.853Z,70.08
2023-02-11T05:42:44.359Z,69.41
2023-02-11T05:45:16.877Z,69.75
2023-02-11T05:47:49.442Z,68.93
2023-02-11T05:50:21.752Z,68.68
2023-02-11T05:52:57.682Z,68.83
2023-02-11T05:55:31.125Z,69.07
2023-02-11T05:58:03.969Z,69.20
2023-02-11T06:00:36.750Z,69.08
2023-02-11T06:03:09.189Z,69.95
2023-02-11T06:05:42.874Z,68.76
2023-02-11T06:08:16.039Z,69.75
2023-02-11T06:10:49.047Z,69.54
2023-02-11T06:13:21.491Z,69.70
2023-02-11T06:15:57.892Z,69.65
2023-02-11T06:18:31.517Z,69.75
2023-02-11T06:21:07.526Z,68.57
2023-02-11T06:23:40.054Z,68.28
2023-02-11T06:26:18.520Z,67.44
2023-02-11T06:28:51.112Z,67.34
2023-02-11T06:31:23.808Z,67.17
2023-02-11T06:33:56.287Z,68.11
2023-02-11T06:36:28.687Z,67.73
2023-02-11T06:39:01.956Z,68.31
2023-02-11T06:41:34.981Z,69.00
2023-02-11T06:44:07.464Z,68.89
2023-02-11T06:46:39.857Z,69.93
2023-02-11T06:49:12.782Z,70.17
2023-02-11T06:51:45.161Z,70.17
2023-02-11T06:54:17.771Z,70.43
2023-02-11T06:56:50.814Z,69.97
2023-02-11T06:59:23.340Z,70.16
2023-02-11T07:01:55.773Z,69.55
2023-02-11T07:04:28.429Z,69.17
2023-02-11T07:07:01.002Z,69.18
2023-02-11T07:09:33.697Z,68.75
2023-02-11T07:12:09.021Z,68.29
2023-02-11T07:14:41.502Z,67.32
2023-02-11T07:17:13.895Z,66.89
2023-02-11T07:19:46.327Z,66.63
2023-02-11T07:22:18.782Z,66.90
2023-02-11T07:24:51.206Z,66.56
2023-02-11T07:27:24.273Z,66.71
2023-02-11T07:29:56.788Z,66.94
2023-02-11T07:32:29.408Z,66.75
2023-02-11T07:35:01.970Z,67.22
2023-02-11T07:37:34.780Z,66.55
2023-02-11T07:40:08.065Z,65.84
2023-02-11T07:42:41.093Z,65.71
2023-02-11T07:45:13.536Z,66.04
2023-02-11T07:47:45.941Z,62.73
2023-02-11T07:50:18.477Z,64.02
2023-02-11T07:52:50.990Z,62.90
2023-02-11T07:55:23.389Z,63.21
2023-02-11T07:57:56.414Z,62.32
2023-02-11T08:00:28.855Z,60.33
2023-02-11T08:03:01.358Z,56.59
2023-02-11T08:05:33.871Z,54.99
2023-02-11T08:08:06.329Z,54.99
2023-02-11T08:10:38.694Z,54.84
2023-02-11T08:13:11.869Z,53.66
2023-02-11T08:15:45.199Z,53.39
2023-02-11T08:18:17.578Z,53.58
2023-02-11T08:20:50.241Z,52.19
2023-02-11T08:23:22.739Z,52.49
2023-02-11T08:25:55.094Z,52.12
2023-02-11T08:28:28.080Z,53.33
2023-02-11T08:31:05.644Z,52.47
2023-02-11T08:33:40.279Z,53.14
2023-02-11T08:36:15.149Z,51.85
2023-02-11T08:38:47.791Z,52.85
2023-02-11T08:41:20.212Z,52.62
2023-02-11T08:43:53.229Z,52.96
2023-02-11T08:46:26.320Z,52.23
2023-02-11T08:48:58.787Z,52.90
2023-02-11T08:51:31.729Z,52.72
2023-02-11T08:54:05.452Z,52.49
2023-02-11T08:56:41.013Z,52.23
2023-02-11T08:59:14.630Z,53.00
2023-02-11T09:01:47.335Z,53.15
2023-02-11T09:04:19.732Z,53.91
2023-02-11T09:06:52.153Z,54.51
2023-02-11T09:09:24.507Z,55.03
2023-02-11T09:11:56.966Z,54.50
2023-02-11T09:14:29.981Z,54.41
2023-02-11T09:17:02.488Z,54.24
2023-02-11T09:19:35.079Z,54.17
2023-02-11T09:22:07.780Z,53.38
2023-02-11T09:24:40.166Z,53.69
2023-02-11T09:27:12.649Z,52.74
2023-02-11T09:29:45.695Z,53.77
2023-02-11T09:32:18.179Z,52.84
2023-02-11T09:34:50.913Z,51.88
2023-02-11T09:37:23.355Z,52.75
2023-02-11T09:39:55.630Z,52.66
2023-02-11T09:42:42.816Z,52.62
2023-02-11T09:45:19.498Z,53.43
2023-02-11T09:47:56.562Z,53.35
2023-02-11T09:50:32.195Z,52.48
2023-02-11T09:53:11.463Z,53.01
2023-02-11T09:55:46.572Z,53.35
2023-02-11T09:58:25.465Z,52.58
2023-02-11T10:01:06.323Z,52.19
2023-02-11T10:03:54.707Z,52.58
2023-02-11T10:06:40.344Z,51.93
2023-02-11T10:09:36.814Z,52.01
2023-02-11T10:12:27.143Z,52.50
2023-02-11T10:15:17.455Z,51.66
2023-02-11T10:18:12.795Z,51.50
2023-02-11T10:20:57.268Z,50.90
2023-02-11T10:23:34.133Z,51.37
2023-02-11T10:26:12.990Z,50.77
2023-02-11T10:28:47.755Z,50.26
2023-02-11T10:31:24.923Z,50.81
2023-02-11T10:34:02.469Z,48.45
2023-02-11T10:36:37.301Z,49.24
2023-02-11T10:39:15.457Z,49.03
2023-02-11T10:41:52.911Z,48.60
2023-02-11T10:44:30.084Z,47.51
2023-02-11T10:47:09.073Z,46.67
2023-02-11T10:49:43.784Z,46.51
2023-02-11T10:52:21.373Z,46.68
2023-02-11T10:54:59.638Z,46.18
2023-02-11T10:57:36.031Z,48.07
2023-02-11T11:00:26.739Z,47.15
2023-02-11T11:03:02.321Z,46.60
2023-02-11T11:05:44.317Z,45.45
2023-02-11T11:08:17.867Z,45.44
2023-02-11T11:11:04.626Z,45.77
2023-02-11T11:13:38.436Z,45.05
2023-02-11T11:16:20.824Z,47.12
2023-02-11T11:19:14.261Z,47.12
2023-02-11T11:21:49.087Z,45.79
2023-02-11T11:24:26.827Z,48.09
2023-02-11T11:27:02.786Z,47.90
2023-02-11T11:29:39.206Z,47.45
2023-02-11T11:32:15.263Z,47.58
2023-02-11T11:34:51.100Z,47.82
2023-02-11T11:37:27.180Z,47.96
2023-02-11T11:40:03.229Z,47.82
2023-02-11T11:42:38.096Z,48.53
2023-02-11T11:45:24.042Z,46.61
2023-02-11T11:48:00.225Z,47.25
2023-02-11T11:50:36.631Z,47.70
2023-02-11T11:53:16.060Z,47.92
2023-02-11T11:55:58.626Z,48.42
2023-02-11T11:58:32.629Z,48.09
2023-02-11T12:01:23.492Z,47.29
2023-02-11T12:04:20.059Z,48.49
2023-02-11T12:07:02.109Z,48.01
2023-02-11T12:09:43.573Z,47.23
2023-02-11T12:12:26.597Z,46.74
2023-02-11T12:15:13.343Z,46.71
2023-02-11T12:17:57.044Z,47.90
2023-02-11T12:20:45.825Z,45.64
2023-02-11T12:23:35.861Z,45.64
2023-02-11T12:26:15.593Z,43.58
2023-02-11T12:28:59.111Z,44.31
2023-02-11T12:31:46.326Z,46.51
2023-02-11T12:34:35.731Z,43.89
2023-02-11T12:37:18.917Z,43.23
2023-02-11T12:39:58.331Z,43.15
2023-02-11T12:43:07.108Z,42.54
2023-02-11T12:45:53.429Z,42.65
2023-02-11T12:48:39.507Z,42.44
2023-02-11T12:51:24.924Z,43.27
2023-02-11T12:54:15.667Z,42.36
2023-02-11T12:56:54.137Z,42.64
2023-02-11T12:59:38.116Z,41.83
2023-02-11T13:02:26.274Z,39.99
2023-02-11T13:05:04.140Z,40.57
2023-02-11T13:07:41.482Z,39.81
2023-02-11T13:10:25.241Z,39.51
2023-02-11T13:13:16.685Z,35.87
2023-02-11T13:15:54.613Z,36.80
2023-02-11T13:18:36.527Z,35.55
2023-02-11T13:21:26.262Z,34.88
2023-02-11T13:24:08.024Z,32.94
2023-02-11T13:26:45.654Z,33.71
2023-02-11T13:29:33.357Z,33.10
2023-02-11T13:32:09.128Z,31.74
2023-02-11T13:34:56.459Z,32.58
2023-02-11T13:37:35.940Z,32.38
2023-02-11T13:40:21.488Z,27.87
2023-02-11T13:42:56.175Z,28.31
2023-02-11T13:45:31.412Z,29.28
2023-02-11T13:48:07.553Z,30.04
2023-02-11T13:50:46.714Z,28.31
2023-02-11T13:53:20.058Z,28.46
2023-02-11T13:56:05.435Z,29.00
2023-02-11T13:58:48.255Z,29.38
2023-02-11T14:01:41.292Z,28.83
2023-02-11T14:04:43.753Z,28.16
2023-02-11T14:07:45.889Z,27.96
2023-02-11T14:10:54.686Z,28.00
2023-02-11T14:13:33.037Z,29.14
2023-02-11T14:16:08.971Z,28.67
2023-02-11T14:19:02.333Z,26.79
2023-02-11T14:21:37.858Z,27.15
2023-02-11T14:24:43.794Z,27.62
2023-02-11T14:27:23.309Z,28.70
2023-02-11T14:30:22.014Z,28.41
2023-02-11T14:33:11.265Z,27.60
2023-02-11T14:35:57.322Z,26.45
2023-02-11T14:38:45.612Z,26.39
2023-02-11T14:41:22.672Z,29.43
2023-02-11T14:43:58.259Z,26.13
2023-02-11T14:46:33.081Z,25.75
2023-02-11T14:49:05.980Z,26.26
2023-02-11T14:51:40.498Z,27.94
2023-02-11T14:54:21.944Z,26.52
2023-02-11T14:57:06.564Z,25.88
2023-02-11T14:59:39.764Z,27.24
2023-02-11T15:02:21.776Z,28.15
2023-02-11T15:04:54.850Z,27.02
2023-02-11T15:07:27.382Z,27.59
2023-02-11T15:10:00.469Z,27.97
2023-02-11T15:12:34.892Z,30.28
2023-02-11T15:15:13.926Z,30.37
2023-02-11T15:17:46.840Z,31.82
2023-02-11T15:20:24.469Z,34.13
2023-02-11T15:22:59.505Z,34.50
2023-02-11T15:25:34.294Z,33.01
2023-02-11T15:28:21.462Z,31.81
2023-02-11T15:30:59.840Z,32.77
2023-02-11T15:33:33.035Z,35.60
2023-02-11T15:36:06.518Z,37.65
2023-02-11T15:38:39.745Z,40.51
2023-02-11T15:41:35.294Z,42.32
2023-02-11T15:44:27.197Z,42.99
2023-02-11T15:47:00.152Z,44.23
2023-02-11T15:49:32.992Z,44.24
2023-02-11T15:52:08.014Z,43.80
2023-02-11T15:54:45.800Z,44.36
2023-02-11T15:57:21.366Z,44.37
2023-02-11T15:59:55.596Z,45.77
2023-02-11T16:02:31.986Z,44.84
2023-02-11T16:05:07.339Z,43.13
2023-02-11T16:07:43.030Z,45.06
2023-02-11T16:10:25.457Z,46.65
2023-02-11T16:13:16.705Z,45.61
2023-02-11T16:15:56.009Z,45.31
2023-02-11T16:18:38.344Z,46.76
2023-02-11T16:21:16.371Z,46.96
2023-02-11T16:23:51.419Z,46.77
2023-02-11T16:26:28.792Z,46.89
2023-02-11T16:29:12.511Z,48.10
2023-02-11T16:31:47.741Z,47.48
2023-02-11T16:34:22.456Z,46.83
2023-02-11T16:36:54.912Z,48.54
2023-02-11T16:39:27.273Z,48.23
2023-02-11T16:41:59.981Z,48.88
2023-02-11T16:44:34.181Z,49.69
2023-02-11T16:47:23.389Z,50.02
2023-02-11T16:49:56.520Z,49.34
2023-02-11T16:52:30.797Z,50.44
2023-02-11T16:55:04.456Z,51.21
2023-02-11T16:57:36.820Z,51.85
2023-02-11T17:00:15.343Z,51.42
2023-02-11T17:02:47.859Z,52.19
2023-02-11T17:05:22.608Z,50.62
2023-02-11T17:07:54.944Z,51.90
2023-02-11T17:10:28.134Z,51.66
2023-02-11T17:13:01.111Z,51.89
2023-02-11T17:15:34.409Z,53.16
2023-02-11T17:18:06.732Z,52.13
2023-02-11T17:20:39.243Z,53.00
2023-02-11T17:23:11.674Z,52.12
2023-02-11T17:25:44.077Z,52.94
2023-02-11T17:28:16.461Z,53.19
2023-02-11T17:30:49.621Z,52.33
2023-02-11T17:33:22.376Z,52.75
2023-02-11T17:35:55.070Z,51.57
2023-02-11T17:38:27.606Z,51.57
2023-02-11T17:41:01.420Z,51.70
2023-02-11T17:43:33.889Z,53.14
2023-02-11T17:46:08.204Z,53.32
2023-02-11T17:48:40.677Z,54.17
2023-02-11T17:51:24.642Z,50.96
2023-02-11T17:53:58.107Z,50.93
2023-02-11T17:56:32.767Z,50.28
2023-02-11T17:59:07.653Z,51.69
2023-02-11T18:01:42.290Z,54.04
2023-02-11T18:04:17.049Z,54.43
2023-02-11T18:06:49.601Z,54.81
2023-02-11T18:09:21.960Z,51.96
2023-02-11T18:11:54.632Z,52.23
2023-02-11T18:14:26.958Z,51.14
2023-02-11T18:17:00.143Z,51.07
2023-02-11T18:19:35.194Z,50.31
2023-02-11T18:22:09.042Z,51.06
2023-02-11T18:24:41.403Z,52.70
2023-02-11T18:27:13.966Z,52.83
2023-02-11T18:29:46.348Z,52.20
2023-02-11T18:32:19.515Z,51.48
2023-02-11T18:34:51.868Z,51.63
2023-02-11T18:37:24.725Z,53.54
2023-02-11T18:39:57.024Z,52.64
2023-02-11T18:42:29.403Z,50.92
2023-02-11T18:45:02.169Z,52.89
2023-02-11T18:47:36.940Z,53.00
2023-02-11T18:50:12.987Z,53.00
2023-02-11T18:52:45.429Z,51.50
2023-02-11T18:55:22.544Z,52.11
2023-02-11T18:57:55.900Z,54.18
2023-02-11T19:00:28.260Z,54.12
2023-02-11T19:03:01.440Z,53.36
2023-02-11T19:05:40.592Z,52.21
2023-02-11T19:08:13.999Z,52.02
2023-02-11T19:10:47.224Z,53.82
2023-02-11T19:13:19.705Z,54.01
2023-02-11T19:15:52.329Z,53.56
2023-02-11T19:18:25.633Z,51.28
2023-02-11T19:20:58.022Z,52.56
2023-02-11T19:23:30.411Z,52.23
2023-02-11T19:26:03.918Z,51.58
2023-02-11T19:28:36.773Z,52.91
2023-02-11T19:31:09.494Z,53.72
2023-02-11T19:33:42.856Z,52.18
2023-02-11T19:36:16.564Z,54.13
2023-02-11T19:38:48.965Z,53.58
2023-02-11T19:41:22.472Z,51.21
2023-02-11T19:43:56.138Z,52.34
2023-02-11T19:46:30.948Z,52.92
2023-02-11T19:49:04.868Z,52.33
2023-02-11T19:51:38.574Z,52.89
2023-02-11T19:54:11.029Z,52.67
2023-02-11T19:56:44.108Z,54.22
2023-02-11T19:59:16.715Z,54.33
2023-02-11T20:01:49.378Z,53.64
2023-02-11T20:04:24.397Z,52.39
2023-02-11T20:06:56.930Z,53.76
2023-02-11T20:09:30.404Z,54.23
2023-02-11T20:12:03.119Z,55.53
2023-02-11T20:14:35.714Z,54.71
2023-02-11T20:17:08.109Z,55.43
2023-02-11T20:19:41.398Z,54.60
2023-02-11T20:22:13.813Z,55.17
2023-02-11T20:24:46.271Z,56.05
2023-02-11T20:27:20.119Z,55.98
2023-02-11T20:29:52.777Z,56.56
2023-02-11T20:32:25.206Z,57.02
2023-02-11T20:34:58.714Z,56.43
2023-02-11T20:37:31.102Z,56.80
2023-02-11T20:40:03.805Z,57.90
2023-02-11T20:42:36.222Z,56.71
2023-02-11T20:45:09.134Z,55.31
2023-02-11T20:47:41.825Z,56.99
2023-02-11T20:50:15.134Z,55.92
2023-02-11T20:52:47.960Z,58.51
2023-02-11T20:55:20.638Z,58.59
2023-02-11T20:57:53.159Z,59.16
2023-02-11T21:00:25.625Z,57.89
2023-02-11T21:02:57.988Z,58.08
2023-02-11T21:05:31.195Z,58.35
2023-02-11T21:08:04.259Z,58.69
2023-02-11T21:10:36.694Z,58.83
2023-02-11T21:13:09.142Z,57.74
2023-02-11T21:15:41.649Z,58.14
2023-02-11T21:18:14.184Z,58.44
2023-02-11T21:20:47.603Z,54.20
2023-02-11T21:23:20.211Z,56.90
2023-02-11T21:25:53.571Z,57.41
2023-02-11T21:28:26.383Z,57.57
2023-02-11T21:30:59.035Z,54.77
2023-02-11T21:33:32.949Z,53.92
2023-02-11T21:36:07.548Z,54.32
2023-02-11T21:38:40.155Z,54.75
2023-02-11T21:41:12.871Z,55.57
2023-02-11T21:43:45.736Z,56.23
2023-02-11T21:46:19.544Z,56.10
2023-02-11T21:48:52.169Z,57.65
2023-02-11T21:51:26.444Z,52.83
2023-02-11T21:54:01.538Z,53.93
2023-02-11T21:56:34.851Z,53.10
2023-02-11T21:59:07.198Z,53.78
2023-02-11T22:01:39.945Z,55.69
2023-02-11T22:04:12.473Z,56.51
2023-02-11T22:06:45.670Z,57.59
2023-02-11T22:09:18.044Z,58.56
2023-02-11T22:11:50.478Z,57.56
2023-02-11T22:14:22.896Z,55.27
2023-02-11T22:16:55.267Z,55.75
2023-02-11T22:19:27.792Z,56.25
2023-02-11T22:22:00.879Z,56.23
2023-02-11T22:24:35.208Z,55.83
2023-02-11T22:27:07.629Z,55.87
2023-02-11T22:29:40.020Z,55.70
2023-02-11T22:32:12.604Z,56.35
2023-02-11T22:34:45.143Z,57.09
2023-02-11T22:37:18.195Z,57.84
2023-02-11T22:39:50.613Z,57.46
2023-02-11T22:42:22.995Z,56.79
2023-02-11T22:44:55.358Z,58.92
2023-02-11T22:47:27.745Z,58.93
2023-02-11T22:50:00.175Z,59.59
2023-02-11T22:52:35.271Z,58.98
2023-02-11T22:55:07.909Z,59.72
2023-02-11T22:57:40.255Z,58.03
2023-02-11T23:00:13.980Z,59.41
2023-02-11T23:02:46.611Z,59.42
2023-02-11T23:05:19.020Z,60.93
2023-02-11T23:07:52.152Z,61.23
2023-02-11T23:10:24.619Z,59.73
2023-02-11T23:12:57.011Z,60.22
2023-02-11T23:15:29.451Z,60.36
2023-02-11T23:18:01.963Z,60.36
2023-02-11T23:20:35.050Z,60.97
2023-02-11T23:23:08.353Z,60.82
2023-02-11T23:25:44.320Z,58.06
2023-02-11T23:28:16.900Z,57.41
2023-02-11T23:30:49.286Z,58.90
2023-02-11T23:33:22.599Z,58.95
2023-02-11T23:35:55.200Z,58.48
2023-02-11T23:38:28.514Z,56.92
2023-02-11T23:41:01.016Z,55.98
2023-02-11T23:43:33.581Z,55.66
2023-02-11T23:46:06.257Z,54.58
2023-02-11T23:48:39.742Z,53.69
2023-02-11T23:51:12.248Z,52.51
2023-02-11T23:53:45.955Z,53.45
2023-02-11T23:56:20.575Z,52.56
2023-02-11T23:58:54.928Z,52.47
